createdAt,value
2018-03-17T00:00:54.069Z,11.23
2018-03-17T00:03:22.328Z,11.03
2018-03-17T00:05:50.625Z,10.07
2018-03-17T00:08:19.349Z,11.27
2018-03-17T00:10:47.611Z,10.83
2018-03-17T00:13:16.008Z,11.83
2018-03-17T00:15:44.501Z,11.80
2018-03-17T00:18:13.571Z,11.50
2018-03-17T00:20:41.880Z,11.60
2018-03-17T00:23:11.120Z,11.63
2018-03-17T00:25:39.385Z,8.77
2018-03-17T00:46:12.047Z,9.37
2018-03-17T00:48:40.315Z,9.77
2018-03-17T00:51:08.586Z,9.73
2018-03-17T00:53:36.883Z,10.40
2018-03-17T00:56:05.432Z,10.60
2018-03-17T00:58:33.699Z,11.60
2018-03-17T01:01:01.951Z,13.50
2018-03-17T01:03:30.248Z,12.70
2018-03-17T01:05:59.333Z,12.73
2018-03-17T01:08:28.376Z,13.17
2018-03-17T01:10:56.643Z,13.20
2018-03-17T01:13:24.886Z,13.03
2018-03-17T01:15:53.918Z,11.27
2018-03-17T01:18:22.185Z,12.87
2018-03-17T01:20:50.426Z,12.10
2018-03-17T01:23:18.763Z,11.67
2018-03-17T01:25:47.064Z,10.77
2018-03-17T01:28:15.365Z,11.50
2018-03-17T01:30:43.651Z,11.20
2018-03-17T01:33:11.931Z,11.37
2018-03-17T01:35:40.193Z,11.70
2018-03-17T01:38:08.599Z,11.83
2018-03-17T01:40:36.839Z,10.80
2018-03-17T01:43:05.166Z,11.60
2018-03-17T01:45:34.436Z,11.40
2018-03-17T01:48:02.727Z,11.77
2018-03-17T01:50:30.962Z,12.37
2018-03-17T01:52:59.260Z,12.20
2018-03-17T01:55:27.548Z,11.63
2018-03-17T01:57:56.515Z,12.00
2018-03-17T02:00:25.149Z,12.10
2018-03-17T02:02:53.437Z,11.97
2018-03-17T02:05:21.695Z,13.40
2018-03-17T02:07:49.970Z,12.73
2018-03-17T02:10:18.211Z,12.90
2018-03-17T02:12:46.483Z,12.83
2018-03-17T02:33:18.384Z,13.23
2018-03-17T02:35:46.655Z,13.33
2018-03-17T02:38:15.657Z,12.67
2018-03-17T02:40:44.308Z,12.57
2018-03-17T02:43:12.567Z,12.07
2018-03-17T02:45:40.852Z,11.80
2018-03-17T02:48:09.144Z,13.13
2018-03-17T02:50:37.405Z,11.00
2018-03-17T02:53:05.665Z,12.70
2018-03-17T02:55:34.217Z,12.60
2018-03-17T02:58:02.528Z,12.33
2018-03-17T03:00:30.796Z,12.00
2018-03-17T03:02:59.811Z,13.07
2018-03-17T03:05:28.121Z,12.17
2018-03-17T03:07:57.228Z,13.10
2018-03-17T03:10:25.536Z,12.60
2018-03-17T03:12:53.828Z,13.10
2018-03-17T03:15:22.848Z,12.10
2018-03-17T03:17:51.171Z,12.20
2018-03-17T03:20:19.438Z,12.70
2018-03-17T03:22:47.737Z,12.87
2018-03-17T03:25:16.109Z,12.43
2018-03-17T03:27:44.405Z,12.47
2018-03-17T03:30:12.672Z,13.77
2018-03-17T03:32:40.993Z,11.97
2018-03-17T03:35:10.104Z,11.97
2018-03-17T03:37:38.748Z,11.23
2018-03-17T03:40:07.036Z,12.93
2018-03-17T03:42:35.342Z,13.27
2018-03-17T03:45:04.368Z,12.77
2018-03-17T04:05:36.793Z,13.10
2018-03-17T04:08:05.096Z,12.40
2018-03-17T04:10:34.192Z,12.33
2018-03-17T04:13:03.958Z,10.37
2018-03-17T04:15:32.198Z,11.70
2018-03-17T04:18:01.277Z,14.03
2018-03-17T04:20:29.780Z,12.67
2018-03-17T04:22:58.034Z,16.03
2018-03-17T04:25:26.312Z,16.20
2018-03-17T04:27:54.737Z,16.23
2018-03-17T04:30:23.780Z,16.83
2018-03-17T04:32:52.049Z,16.97
2018-03-17T04:35:20.584Z,14.60
2018-03-17T04:37:48.815Z,15.60
2018-03-17T04:40:17.055Z,15.67
2018-03-17T04:42:46.317Z,14.57
2018-03-17T05:03:17.396Z,15.00
2018-03-17T05:05:45.688Z,16.33
2018-03-17T05:08:14.765Z,14.97
2018-03-17T05:10:43.032Z,14.13
2018-03-17T05:13:11.353Z,14.20
2018-03-17T05:15:39.615Z,14.20
2018-03-17T05:18:07.888Z,11.83
2018-03-17T05:20:36.338Z,14.67
2018-03-17T05:23:04.611Z,15.67
2018-03-17T05:25:32.908Z,15.00
2018-03-17T05:28:01.229Z,12.93
2018-03-17T05:30:29.468Z,13.23
2018-03-17T05:32:57.774Z,13.10
2018-03-17T05:35:26.050Z,12.67
2018-03-17T05:37:54.320Z,13.00
2018-03-17T05:40:22.594Z,12.73
2018-03-17T05:42:50.958Z,13.27
2018-03-17T05:45:19.206Z,14.00
2018-03-17T05:47:48.253Z,13.67
2018-03-17T05:50:16.647Z,12.10
2018-03-17T05:52:44.863Z,14.10
2018-03-17T05:55:14.650Z,14.20
2018-03-17T05:57:42.927Z,14.70
2018-03-17T06:00:11.203Z,13.80
2018-03-17T06:20:44.590Z,15.20
2018-03-17T06:23:12.872Z,16.43
2018-03-17T06:25:41.112Z,16.30
2018-03-17T06:28:10.200Z,14.03
2018-03-17T06:30:38.600Z,14.47
2018-03-17T06:33:06.877Z,13.93
2018-03-17T06:35:35.544Z,14.37
2018-03-17T06:38:03.816Z,13.63
2018-03-17T06:40:32.051Z,15.10
2018-03-17T06:43:00.352Z,12.40
2018-03-17T06:45:28.576Z,14.63
2018-03-17T07:06:08.103Z,14.93
2018-03-17T07:08:36.379Z,15.10
2018-03-17T07:11:04.620Z,14.87
2018-03-17T07:13:32.956Z,15.47
2018-03-17T07:16:01.260Z,15.30
2018-03-17T07:36:33.401Z,17.47
2018-03-17T07:39:01.739Z,16.63
2018-03-17T07:41:30.780Z,17.23
2018-03-17T07:43:59.324Z,16.40
2018-03-17T07:46:27.626Z,17.53
2018-03-17T07:48:56.675Z,16.73
2018-03-17T07:51:25.208Z,19.20
2018-03-17T08:11:58.316Z,13.80
2018-03-17T08:14:27.598Z,13.00
2018-03-17T08:16:56.671Z,12.03
2018-03-17T08:19:24.947Z,13.53
2018-03-17T08:21:53.205Z,12.17
2018-03-17T08:42:25.912Z,15.70
2018-03-17T08:44:54.198Z,15.13
2018-03-17T08:47:22.473Z,15.93
2018-03-17T08:49:50.731Z,16.30
2018-03-17T09:10:21.502Z,16.33
2018-03-17T09:12:49.775Z,15.13
2018-03-17T09:15:18.026Z,12.80
2018-03-17T09:17:47.183Z,15.77
2018-03-17T09:20:15.453Z,17.17
2018-03-17T09:40:46.959Z,15.77
2018-03-17T09:43:15.261Z,15.63
2018-03-17T09:45:43.564Z,15.20
2018-03-17T09:48:11.874Z,15.60
2018-03-17T09:50:40.103Z,15.30
2018-03-17T09:53:09.123Z,15.77
2018-03-17T10:13:40.243Z,15.90
2018-03-17T10:16:08.528Z,14.30
2018-03-17T10:18:36.796Z,15.97
2018-03-17T10:21:05.286Z,15.10
2018-03-17T10:41:36.497Z,14.43
2018-03-17T10:44:05.551Z,15.10
2018-03-17T10:46:33.815Z,15.43
2018-03-17T11:07:07.657Z,13.93
2018-03-17T11:09:35.927Z,15.50
2018-03-17T11:12:04.199Z,15.20
2018-03-17T11:14:32.468Z,15.67
2018-03-17T11:17:00.731Z,15.67
2018-03-17T11:19:29.061Z,15.37
2018-03-17T11:21:57.443Z,15.97
2018-03-17T11:24:25.732Z,16.40
2018-03-17T11:26:54.100Z,15.93
2018-03-17T11:29:22.598Z,15.63
2018-03-17T11:31:50.902Z,15.53
2018-03-17T11:34:19.268Z,15.57
2018-03-17T11:36:47.564Z,16.53
2018-03-17T11:39:16.562Z,16.20
2018-03-17T11:59:48.388Z,16.17
2018-03-17T12:02:16.672Z,16.93
2018-03-17T12:04:44.956Z,14.63
2018-03-17T12:07:13.386Z,16.17
2018-03-17T12:09:41.619Z,17.00
2018-03-17T12:12:09.887Z,16.70
2018-03-17T12:14:38.168Z,16.70
2018-03-17T12:17:06.441Z,17.37
2018-03-17T12:19:34.720Z,17.20
2018-03-17T12:22:02.971Z,16.33
2018-03-17T12:24:32.010Z,15.47
2018-03-17T12:27:00.247Z,16.30
2018-03-17T12:47:32.091Z,16.30
2018-03-17T12:50:00.310Z,18.03
2018-03-17T13:10:34.747Z,17.23
2018-03-17T13:13:03.750Z,18.03
2018-03-17T13:15:32.788Z,17.03
2018-03-17T13:18:01.094Z,16.77
2018-03-17T13:20:29.417Z,18.63
2018-03-17T13:23:10.470Z,17.77
2018-03-17T13:25:38.808Z,17.83
2018-03-17T13:28:19.192Z,18.10
2018-03-17T13:30:47.570Z,17.53
2018-03-17T13:33:15.831Z,17.40
2018-03-17T13:35:56.311Z,19.10
2018-03-17T13:38:24.545Z,18.80
2018-03-17T13:40:52.844Z,18.10
2018-03-17T13:43:21.140Z,18.57
2018-03-17T13:45:49.387Z,19.07
2018-03-17T13:48:17.698Z,18.50
2018-03-17T13:50:46.008Z,21.17
2018-03-17T13:53:14.296Z,18.60
2018-03-17T14:13:45.392Z,21.43
2018-03-17T14:16:13.708Z,20.53
2018-03-17T14:36:44.093Z,21.30
2018-03-17T14:39:12.393Z,21.07
2018-03-17T14:41:41.448Z,21.47
2018-03-17T14:44:10.064Z,20.90
2018-03-17T14:46:39.070Z,20.70
2018-03-17T14:49:07.391Z,20.50
2018-03-17T15:09:39.120Z,19.63
2018-03-17T15:12:07.370Z,21.33
2018-03-17T15:14:35.610Z,20.77
2018-03-17T15:35:09.484Z,18.90
2018-03-17T15:37:37.795Z,21.43
2018-03-17T15:40:06.819Z,19.13
2018-03-17T15:42:35.120Z,20.13
2018-03-17T15:45:03.429Z,17.97
2018-03-17T15:47:31.699Z,20.43
2018-03-17T15:50:00.189Z,19.73
2018-03-17T16:10:34.421Z,17.30
2018-03-17T16:31:05.123Z,15.30
2018-03-17T16:33:34.127Z,15.37
2018-03-17T16:36:02.379Z,16.30
2018-03-17T16:38:31.684Z,16.70
2018-03-17T16:40:59.943Z,16.23
2018-03-17T17:01:33.401Z,14.73
2018-03-17T17:22:05.010Z,16.47
2018-03-17T17:24:33.307Z,18.60
2018-03-17T17:27:01.563Z,17.97
2018-03-17T17:29:29.873Z,18.50
2018-03-17T17:31:58.389Z,19.10
2018-03-17T17:34:26.685Z,17.93
2018-03-17T17:36:55.711Z,16.50
2018-03-17T17:39:24.093Z,17.60
2018-03-17T17:41:52.349Z,18.13
2018-03-17T17:44:20.640Z,18.93
2018-03-17T17:46:49.102Z,20.13
2018-03-17T18:07:21.437Z,18.40
2018-03-17T18:09:50.029Z,17.00
2018-03-17T18:12:19.070Z,16.00
2018-03-17T18:14:48.086Z,17.67
2018-03-17T18:17:16.731Z,19.40
2018-03-17T18:19:45.004Z,18.47
2018-03-17T18:22:13.326Z,17.83
2018-03-17T18:24:41.583Z,17.97
2018-03-17T18:27:09.875Z,18.53
2018-03-17T18:29:38.180Z,19.20
2018-03-17T18:32:07.440Z,18.07
2018-03-17T18:34:35.733Z,17.30
2018-03-17T18:37:04.011Z,19.20
2018-03-17T18:39:32.304Z,18.80
2018-03-17T18:42:00.580Z,17.77
2018-03-17T18:44:28.815Z,17.50
2018-03-17T18:46:57.127Z,19.07
2018-03-17T18:49:25.354Z,20.70
2018-03-17T18:51:53.640Z,19.33
2018-03-17T19:12:25.184Z,20.07
2018-03-17T19:14:53.416Z,19.10
2018-03-17T19:35:24.126Z,18.50
2018-03-17T19:37:52.357Z,18.60
2018-03-17T19:40:20.623Z,18.83
2018-03-17T20:00:51.902Z,18.50
2018-03-17T20:03:20.168Z,18.50
2018-03-17T20:23:52.800Z,18.23
2018-03-17T20:26:21.064Z,18.67
2018-03-17T20:28:49.303Z,19.83
2018-03-17T20:31:17.989Z,19.13
2018-03-17T20:33:47.051Z,17.40
2018-03-17T20:36:15.333Z,17.80
2018-03-17T20:38:43.620Z,16.93
2018-03-17T20:41:11.892Z,16.90
2018-03-17T20:43:40.212Z,17.43
2018-03-17T20:46:09.277Z,17.90
2018-03-17T20:48:37.517Z,16.47
2018-03-17T20:51:05.806Z,16.83
2018-03-17T20:53:34.096Z,16.70
2018-03-17T20:56:02.368Z,17.13
2018-03-17T20:58:30.673Z,16.93
2018-03-17T21:00:59.154Z,17.27
2018-03-17T21:03:27.468Z,16.40
2018-03-17T21:24:00.672Z,13.33
2018-03-17T21:26:28.944Z,13.63
2018-03-17T21:28:57.253Z,11.70
2018-03-17T21:31:26.544Z,13.47
2018-03-17T21:33:54.797Z,13.47
2018-03-17T21:36:23.031Z,13.57
2018-03-17T21:38:51.364Z,13.30
2018-03-17T21:41:19.636Z,13.93
2018-03-17T21:43:47.924Z,12.57
2018-03-17T21:46:16.249Z,12.57
2018-03-17T21:48:44.557Z,12.70
2018-03-17T21:51:12.811Z,13.20
2018-03-17T22:11:42.820Z,11.93
2018-03-17T22:32:16.324Z,11.87
2018-03-17T22:52:50.189Z,13.27
2018-03-17T22:55:18.423Z,13.63
2018-03-17T22:57:46.747Z,12.40
2018-03-17T23:00:15.610Z,13.67
2018-03-17T23:02:43.909Z,13.60
2018-03-17T23:05:12.179Z,12.30
2018-03-17T23:07:40.868Z,14.63
2018-03-17T23:10:09.128Z,13.13
2018-03-17T23:12:37.404Z,12.33
2018-03-17T23:15:06.033Z,13.47
2018-03-17T23:17:34.459Z,13.43
2018-03-17T23:20:02.735Z,12.87
2018-03-17T23:22:31.248Z,13.30
2018-03-17T23:24:59.524Z,13.27
2018-03-17T23:27:27.785Z,13.37
2018-03-17T23:29:56.082Z,12.93
2018-03-17T23:50:27.986Z,14.10
2018-03-17T23:52:56.431Z,14.73
2018-03-17T23:55:24.770Z,14.73
2018-03-17T23:57:52.990Z,15.30
